createdAt,value
2019-02-16T00:00:42.464Z,-0.40
2019-02-16T00:03:46.355Z,-0.40
2019-02-16T00:06:50.294Z,-0.50
2019-02-16T00:09:54.132Z,-0.50
2019-02-16T00:12:58.004Z,-0.50
2019-02-16T00:16:01.844Z,-0.50
2019-02-16T00:19:05.682Z,-0.50
2019-02-16T00:22:09.566Z,-0.60
2019-02-16T00:25:13.445Z,-0.60
2019-02-16T00:28:17.319Z,-0.50
2019-02-16T00:31:21.269Z,-0.50
2019-02-16T00:34:25.132Z,-0.50
2019-02-16T00:37:29.045Z,-0.50
2019-02-16T00:40:32.869Z,-0.50
2019-02-16T00:43:36.734Z,-0.60
2019-02-16T00:46:41.477Z,-0.60
2019-02-16T00:49:45.383Z,-0.70
2019-02-16T00:52:49.217Z,-0.70
2019-02-16T00:55:53.129Z,-0.70
2019-02-16T00:58:57.008Z,-0.70
2019-02-16T01:02:00.905Z,-0.60
2019-02-16T01:05:06.116Z,-0.50
2019-02-16T01:08:09.952Z,-0.40
2019-02-16T01:11:13.851Z,-0.40
2019-02-16T01:14:17.703Z,-0.50
2019-02-16T01:17:21.577Z,-0.50
2019-02-16T01:20:25.447Z,-0.60
2019-02-16T01:23:29.312Z,-0.60
2019-02-16T01:26:33.210Z,-0.60
2019-02-16T01:29:37.045Z,-0.60
2019-02-16T01:32:40.936Z,-0.60
2019-02-16T01:35:44.773Z,-0.60
2019-02-16T01:38:48.624Z,-0.60
2019-02-16T01:41:52.492Z,-0.60
2019-02-16T01:44:56.350Z,-0.60
2019-02-16T01:48:00.256Z,-0.60
2019-02-16T01:51:04.209Z,-0.60
2019-02-16T01:54:08.079Z,-0.70
2019-02-16T01:57:11.944Z,-0.80
2019-02-16T02:00:15.821Z,-0.80
2019-02-16T02:03:19.677Z,-0.70
2019-02-16T02:06:23.539Z,-0.70
2019-02-16T02:09:27.472Z,-0.70
2019-02-16T02:12:31.305Z,-0.70
2019-02-16T02:15:35.195Z,-0.70
2019-02-16T02:18:39.029Z,-0.70
2019-02-16T02:21:42.925Z,-0.70
2019-02-16T02:24:46.764Z,-0.70
2019-02-16T02:27:50.664Z,-0.70
2019-02-16T02:30:54.500Z,-0.60
2019-02-16T02:33:58.398Z,-0.70
2019-02-16T02:37:02.295Z,-0.70
2019-02-16T02:40:08.454Z,-0.70
2019-02-16T02:43:12.313Z,-0.70
2019-02-16T02:46:16.155Z,-0.70
2019-02-16T02:49:20.027Z,-0.80
2019-02-16T02:52:23.969Z,-0.80
2019-02-16T02:55:27.823Z,-0.80
2019-02-16T02:58:31.720Z,-0.90
2019-02-16T03:01:35.562Z,-1.00
2019-02-16T03:04:39.449Z,-1.00
2019-02-16T03:07:43.295Z,-1.10
2019-02-16T03:10:47.209Z,-1.20
2019-02-16T03:13:51.098Z,-1.20
2019-02-16T03:16:54.939Z,-1.30
2019-02-16T03:19:58.834Z,-1.20
2019-02-16T03:23:16.510Z,-1.00
2019-02-16T03:26:38.369Z,-1.10
2019-02-16T03:29:47.820Z,-1.00
2019-02-16T03:33:15.543Z,-1.10
2019-02-16T03:36:43.444Z,-1.10
2019-02-16T03:39:47.431Z,-1.20
2019-02-16T03:42:51.296Z,-1.30
2019-02-16T03:45:55.176Z,-1.30
2019-02-16T03:48:59.014Z,-1.30
2019-02-16T03:52:12.904Z,-1.30
2019-02-16T03:55:08.409Z,-1.50
2019-02-16T03:58:12.314Z,-1.50
2019-02-16T04:01:16.150Z,-1.60
2019-02-16T04:04:20.033Z,-1.60
2019-02-16T04:07:23.935Z,-1.50
2019-02-16T04:10:27.764Z,-1.50
2019-02-16T04:13:32.159Z,-1.50
2019-02-16T04:16:35.981Z,-1.60
2019-02-16T04:19:39.863Z,-1.50
2019-02-16T04:22:43.719Z,-1.50
2019-02-16T04:25:47.610Z,-1.50
2019-02-16T04:28:51.474Z,-1.50
2019-02-16T04:31:55.317Z,-1.40
2019-02-16T04:34:59.203Z,-1.50
2019-02-16T04:38:03.054Z,-1.40
2019-02-16T04:41:06.920Z,-1.50
2019-02-16T04:44:10.800Z,-1.50
2019-02-16T04:47:14.651Z,-1.50
2019-02-16T04:50:18.536Z,-1.50
2019-02-16T04:53:22.406Z,-1.50
2019-02-16T04:56:26.352Z,-1.50
2019-02-16T04:59:30.163Z,-1.60
2019-02-16T05:02:34.070Z,-1.40
2019-02-16T05:05:37.931Z,-1.30
2019-02-16T05:08:41.806Z,-1.20
2019-02-16T05:11:45.654Z,-1.20
2019-02-16T05:14:49.534Z,-1.10
2019-02-16T05:17:53.458Z,-1.10
2019-02-16T05:20:57.292Z,-1.00
2019-02-16T05:24:01.189Z,-1.10
2019-02-16T05:27:05.118Z,-1.20
2019-02-16T05:30:09.320Z,-1.20
2019-02-16T05:33:13.188Z,-1.20
2019-02-16T05:36:17.043Z,-1.20
2019-02-16T05:39:20.908Z,-1.10
2019-02-16T05:42:24.824Z,-1.10
2019-02-16T05:45:28.694Z,-1.00
2019-02-16T05:48:32.543Z,-0.90
2019-02-16T05:51:36.432Z,-1.00
2019-02-16T05:54:40.285Z,-1.10
2019-02-16T05:57:44.156Z,-1.10
2019-02-16T06:00:48.038Z,-1.00
2019-02-16T06:03:51.891Z,-0.90
2019-02-16T06:06:55.785Z,-0.90
2019-02-16T06:09:59.656Z,-0.70
2019-02-16T06:13:03.544Z,-0.60
2019-02-16T06:16:07.423Z,-0.40
2019-02-16T06:19:11.285Z,-0.40
2019-02-16T06:22:15.981Z,-0.30
2019-02-16T06:25:19.898Z,-0.10
2019-02-16T06:28:23.752Z,0.00
2019-02-16T06:31:27.655Z,0.20
2019-02-16T06:34:32.469Z,0.50
2019-02-16T06:37:36.419Z,0.70
2019-02-16T06:40:41.189Z,1.40
2019-02-16T06:43:45.151Z,2.80
2019-02-16T06:46:49.049Z,4.60
2019-02-16T06:49:52.946Z,6.30
2019-02-16T06:52:56.766Z,7.40
2019-02-16T06:56:02.235Z,8.10
2019-02-16T06:59:06.149Z,8.60
2019-02-16T07:02:10.015Z,9.20
2019-02-16T07:05:13.891Z,9.60
2019-02-16T07:08:17.725Z,10.40
2019-02-16T07:11:21.620Z,11.30
2019-02-16T07:14:25.496Z,11.40
2019-02-16T07:17:37.046Z,12.30
2019-02-16T07:20:40.946Z,13.30
2019-02-16T07:23:44.805Z,13.40
2019-02-16T07:26:48.669Z,12.90
2019-02-16T07:29:52.513Z,12.30
2019-02-16T07:32:56.434Z,14.60
2019-02-16T07:36:02.729Z,14.30
2019-02-16T07:39:07.819Z,14.40
2019-02-16T07:42:11.716Z,14.60
2019-02-16T07:45:20.069Z,15.20
2019-02-16T07:48:28.249Z,16.30
2019-02-16T07:51:36.398Z,16.00
2019-02-16T07:54:41.849Z,14.70
2019-02-16T07:57:49.985Z,13.50
2019-02-16T08:00:58.189Z,12.50
2019-02-16T08:04:09.700Z,10.70
2019-02-16T08:07:15.114Z,9.50
2019-02-16T08:10:26.551Z,8.60
2019-02-16T08:13:34.736Z,7.60
2019-02-16T08:16:52.364Z,7.50
2019-02-16T08:20:01.012Z,7.60
2019-02-16T08:23:09.684Z,7.50
2019-02-16T08:26:15.159Z,7.50
2019-02-16T08:29:26.507Z,7.40
2019-02-16T08:32:34.686Z,7.30
2019-02-16T08:35:40.143Z,7.40
2019-02-16T08:38:45.596Z,7.40
2019-02-16T08:41:59.994Z,7.50
2019-02-16T08:45:21.965Z,7.60
2019-02-16T08:48:27.405Z,7.60
2019-02-16T08:51:32.876Z,7.70
2019-02-16T08:54:38.296Z,7.60
2019-02-16T08:57:43.741Z,7.70
2019-02-16T09:00:52.111Z,7.60
2019-02-16T09:03:57.592Z,7.70
2019-02-16T09:07:12.050Z,7.80
2019-02-16T09:10:40.265Z,8.10
2019-02-16T09:13:45.716Z,8.20
2019-02-16T09:17:09.489Z,8.30
2019-02-16T09:20:15.012Z,8.60
2019-02-16T09:23:28.994Z,8.70
2019-02-16T09:26:50.698Z,9.10
2019-02-16T09:30:02.045Z,9.40
2019-02-16T09:33:10.670Z,9.70
2019-02-16T09:36:25.077Z,10.80
2019-02-16T09:39:36.486Z,10.90
2019-02-16T09:42:41.980Z,12.60
2019-02-16T09:45:47.468Z,13.00
2019-02-16T09:48:52.922Z,11.90
2019-02-16T09:52:01.316Z,11.30
2019-02-16T09:55:10.749Z,10.80
2019-02-16T09:58:19.211Z,10.80
2019-02-16T10:01:40.931Z,11.10
2019-02-16T10:04:55.406Z,11.50
2019-02-16T10:08:03.634Z,12.90
2019-02-16T10:11:11.851Z,13.90
2019-02-16T10:14:33.867Z,14.80
2019-02-16T10:17:39.274Z,15.00
2019-02-16T10:20:59.835Z,15.70
2019-02-16T10:24:17.660Z,15.70
2019-02-16T10:27:27.208Z,16.70
2019-02-16T10:30:35.501Z,17.50
2019-02-16T10:33:46.431Z,18.50
2019-02-16T10:36:57.553Z,18.40
2019-02-16T10:40:09.174Z,18.90
2019-02-16T10:43:23.410Z,19.30
2019-02-16T10:46:41.165Z,19.40
2019-02-16T10:49:46.612Z,19.80
2019-02-16T10:52:57.902Z,20.70
2019-02-16T10:56:06.382Z,20.60
2019-02-16T10:59:13.669Z,21.20
2019-02-16T11:02:31.151Z,20.70
2019-02-16T11:05:36.575Z,20.50
2019-02-16T11:08:48.215Z,18.20
2019-02-16T11:11:53.654Z,16.40
2019-02-16T11:15:17.336Z,14.80
2019-02-16T11:18:25.355Z,13.70
2019-02-16T11:21:45.896Z,13.30
2019-02-16T11:24:57.425Z,13.20
2019-02-16T11:28:17.730Z,13.00
2019-02-16T11:31:29.177Z,12.80
2019-02-16T11:34:49.645Z,12.80
2019-02-16T11:37:55.120Z,12.70
2019-02-16T11:41:03.340Z,12.70
2019-02-16T11:44:25.176Z,12.70
2019-02-16T11:47:47.094Z,12.80
2019-02-16T11:50:58.735Z,12.70
2019-02-16T11:54:04.168Z,12.80
2019-02-16T11:57:15.569Z,12.90
2019-02-16T12:00:23.674Z,12.80
2019-02-16T12:03:37.901Z,12.70
2019-02-16T12:06:43.398Z,12.70
2019-02-16T12:09:54.570Z,12.80
2019-02-16T12:13:00.067Z,12.80
2019-02-16T12:16:14.054Z,12.80
2019-02-16T12:19:22.330Z,12.80
2019-02-16T12:22:27.770Z,12.70
2019-02-16T12:25:51.709Z,12.70
2019-02-16T12:29:12.094Z,12.80
2019-02-16T12:32:17.586Z,12.80
2019-02-16T12:35:32.204Z,12.80
2019-02-16T12:38:43.530Z,12.90
2019-02-16T12:42:05.185Z,12.90
2019-02-16T12:45:15.415Z,12.90
2019-02-16T12:48:26.332Z,13.00
2019-02-16T12:51:50.046Z,12.90
2019-02-16T12:55:14.991Z,13.00
2019-02-16T12:58:23.295Z,12.90
2019-02-16T13:01:28.731Z,13.00
2019-02-16T13:04:34.189Z,12.80
2019-02-16T13:07:51.753Z,12.90
2019-02-16T13:11:02.969Z,13.00
2019-02-16T13:14:08.479Z,13.20
2019-02-16T13:17:28.903Z,13.20
2019-02-16T13:20:37.072Z,13.20
2019-02-16T13:23:45.278Z,13.40
2019-02-16T13:26:50.708Z,13.40
2019-02-16T13:30:04.931Z,13.40
2019-02-16T13:33:26.481Z,13.40
2019-02-16T13:36:34.640Z,13.20
2019-02-16T13:39:56.327Z,13.10
2019-02-16T13:43:04.483Z,13.20
2019-02-16T13:46:26.328Z,13.10
2019-02-16T13:49:31.815Z,13.10
2019-02-16T13:52:39.911Z,13.10
2019-02-16T13:56:01.566Z,13.10
2019-02-16T13:59:06.990Z,13.20
2019-02-16T14:02:28.937Z,12.90
2019-02-16T14:05:50.606Z,12.90
2019-02-16T14:08:58.877Z,12.70
2019-02-16T14:12:06.870Z,12.60
2019-02-16T14:15:21.312Z,12.60
2019-02-16T14:18:25.176Z,12.50
2019-02-16T14:21:29.056Z,12.40
2019-02-16T14:24:43.384Z,12.40
2019-02-16T14:27:47.224Z,12.30
2019-02-16T14:30:51.118Z,12.20
2019-02-16T14:33:57.167Z,12.10
2019-02-16T14:37:02.125Z,11.90
2019-02-16T14:40:07.332Z,11.70
2019-02-16T14:43:11.180Z,11.60
2019-02-16T14:46:15.089Z,11.40
2019-02-16T14:49:18.897Z,11.50
2019-02-16T14:52:22.884Z,11.50
2019-02-16T14:55:26.761Z,11.50
2019-02-16T14:58:30.649Z,11.40
2019-02-16T15:01:34.549Z,11.20
2019-02-16T15:04:38.452Z,11.10
2019-02-16T15:07:42.294Z,10.90
2019-02-16T15:10:46.169Z,10.80
2019-02-16T15:13:50.020Z,10.70
2019-02-16T15:16:53.956Z,10.40
2019-02-16T15:19:57.824Z,10.30
2019-02-16T15:23:01.689Z,10.20
2019-02-16T15:26:05.522Z,9.80
2019-02-16T15:29:09.463Z,9.50
2019-02-16T15:32:13.292Z,9.30
2019-02-16T15:35:17.193Z,8.90
2019-02-16T15:38:21.016Z,8.50
2019-02-16T15:41:24.899Z,8.10
2019-02-16T15:44:28.816Z,7.70
2019-02-16T15:47:32.708Z,7.40
2019-02-16T15:50:36.582Z,7.00
2019-02-16T15:53:40.451Z,6.60
2019-02-16T15:56:44.357Z,6.30
2019-02-16T15:59:48.235Z,6.00
2019-02-16T16:02:52.204Z,5.80
2019-02-16T16:05:56.078Z,5.60
2019-02-16T16:09:01.769Z,5.30
2019-02-16T16:12:09.939Z,5.10
2019-02-16T16:15:23.871Z,4.90
2019-02-16T16:18:38.294Z,4.70
2019-02-16T16:22:00.433Z,4.60
2019-02-16T16:25:06.685Z,4.50
2019-02-16T16:28:28.673Z,4.40
2019-02-16T16:31:43.375Z,4.30
2019-02-16T16:34:51.577Z,4.20
2019-02-16T16:37:59.060Z,4.10
2019-02-16T16:41:04.154Z,3.90
2019-02-16T16:44:18.690Z,3.80
2019-02-16T16:47:40.324Z,3.70
2019-02-16T16:51:02.209Z,3.60
2019-02-16T16:54:25.719Z,3.60
2019-02-16T16:57:49.245Z,3.50
2019-02-16T17:00:59.272Z,3.40
2019-02-16T17:04:10.643Z,3.30
2019-02-16T17:07:22.037Z,3.20
2019-02-16T17:10:30.239Z,3.00
2019-02-16T17:13:35.686Z,3.10
2019-02-16T17:16:59.631Z,3.00
2019-02-16T17:20:22.218Z,3.00
2019-02-16T17:23:33.873Z,3.00
2019-02-16T17:26:44.770Z,3.10
2019-02-16T17:30:02.475Z,3.10
2019-02-16T17:33:10.920Z,3.10
2019-02-16T17:36:16.316Z,3.10
2019-02-16T17:39:21.769Z,3.00
2019-02-16T17:42:27.226Z,3.00
2019-02-16T17:45:32.714Z,3.10
2019-02-16T17:48:38.113Z,3.10
2019-02-16T17:51:46.562Z,3.10
2019-02-16T17:55:00.925Z,3.20
2019-02-16T17:58:22.595Z,3.40
2019-02-16T18:01:37.108Z,3.30
2019-02-16T18:04:42.517Z,3.30
2019-02-16T18:07:59.968Z,3.20
2019-02-16T18:11:14.290Z,3.10
2019-02-16T18:14:19.712Z,3.00
2019-02-16T18:17:31.049Z,3.00
2019-02-16T18:20:36.543Z,3.00
2019-02-16T18:23:41.968Z,2.90
2019-02-16T18:26:56.945Z,2.90
2019-02-16T18:30:08.621Z,2.80
2019-02-16T18:33:20.322Z,2.80
2019-02-16T18:36:44.112Z,2.70
2019-02-16T18:39:55.580Z,2.60
2019-02-16T18:43:08.474Z,2.50
2019-02-16T18:46:23.089Z,2.40
2019-02-16T18:49:28.499Z,2.30
2019-02-16T18:52:52.367Z,2.20
2019-02-16T18:56:03.870Z,2.30
2019-02-16T18:59:09.272Z,2.20
2019-02-16T19:02:29.539Z,2.20
2019-02-16T19:05:35.024Z,2.20
2019-02-16T19:08:52.325Z,2.10
2019-02-16T19:12:09.803Z,2.10
2019-02-16T19:15:18.195Z,2.10
2019-02-16T19:18:23.632Z,2.20
2019-02-16T19:21:29.093Z,2.40
2019-02-16T19:24:34.600Z,2.70
2019-02-16T19:27:49.052Z,2.70
2019-02-16T19:30:57.250Z,2.70
2019-02-16T19:34:17.474Z,2.70
2019-02-16T19:37:25.965Z,2.60
2019-02-16T19:40:31.457Z,2.60
2019-02-16T19:43:51.862Z,2.50
2019-02-16T19:47:13.404Z,2.40
2019-02-16T19:50:18.839Z,2.40
2019-02-16T19:53:24.249Z,2.30
2019-02-16T19:56:32.726Z,2.40
2019-02-16T19:59:38.197Z,2.40
2019-02-16T20:02:49.611Z,2.40
2019-02-16T20:06:03.800Z,2.10
2019-02-16T20:09:09.561Z,2.00
2019-02-16T20:12:14.949Z,2.00
2019-02-16T20:15:37.026Z,2.00
2019-02-16T20:18:45.291Z,1.90
2019-02-16T20:21:56.735Z,1.70
2019-02-16T20:25:17.124Z,1.60
2019-02-16T20:28:28.626Z,1.40
2019-02-16T20:31:37.125Z,1.40
2019-02-16T20:34:42.600Z,1.30
2019-02-16T20:37:53.502Z,1.30
2019-02-16T20:41:04.974Z,1.20
2019-02-16T20:44:19.445Z,1.20
2019-02-16T20:47:24.976Z,1.20
2019-02-16T20:50:30.365Z,1.20
2019-02-16T20:53:38.910Z,1.20
2019-02-16T20:56:47.162Z,1.20
2019-02-16T20:59:58.434Z,1.20
2019-02-16T21:03:12.473Z,1.10
2019-02-16T21:06:17.895Z,1.00
2019-02-16T21:09:23.358Z,0.90
2019-02-16T21:12:28.804Z,0.90
2019-02-16T21:15:36.680Z,0.70
2019-02-16T21:18:42.180Z,0.60
2019-02-16T21:22:05.510Z,0.60
2019-02-16T21:25:19.519Z,0.60
2019-02-16T21:28:24.955Z,0.50
2019-02-16T21:31:30.415Z,0.40
2019-02-16T21:34:35.907Z,0.30
2019-02-16T21:37:56.372Z,0.10
2019-02-16T21:41:01.846Z,0.10
2019-02-16T21:44:10.083Z,0.00
2019-02-16T21:47:15.533Z,-0.10
2019-02-16T21:50:36.313Z,-0.10
2019-02-16T21:53:54.014Z,0.00
2019-02-16T21:57:14.696Z,0.00
2019-02-16T22:00:22.955Z,0.00
2019-02-16T22:03:28.354Z,0.00
2019-02-16T22:06:33.849Z,0.00
2019-02-16T22:09:39.260Z,0.10
2019-02-16T22:12:53.480Z,0.10
2019-02-16T22:15:57.435Z,0.00
2019-02-16T22:19:01.239Z,0.00
2019-02-16T22:22:05.177Z,0.10
2019-02-16T22:25:09.100Z,0.10
2019-02-16T22:28:18.713Z,0.00
2019-02-16T22:31:18.533Z,0.00
2019-02-16T22:34:22.425Z,-0.10
2019-02-16T22:37:26.350Z,-0.30
2019-02-16T22:40:30.214Z,-0.30
2019-02-16T22:43:34.117Z,-0.40
2019-02-16T22:46:37.995Z,-0.40
2019-02-16T22:49:41.911Z,-0.50
2019-02-16T22:52:45.744Z,-0.50
2019-02-16T22:55:49.669Z,-0.30
2019-02-16T22:58:53.571Z,-0.20
2019-02-16T23:01:57.430Z,-0.10
2019-02-16T23:05:01.333Z,-0.10
2019-02-16T23:08:05.234Z,0.00
2019-02-16T23:11:09.116Z,0.00
2019-02-16T23:14:13.660Z,-0.10
2019-02-16T23:17:17.561Z,-0.20
2019-02-16T23:20:21.421Z,-0.20
2019-02-16T23:23:25.289Z,-0.30
2019-02-16T23:26:29.617Z,-0.40
2019-02-16T23:29:33.454Z,-0.50
2019-02-16T23:32:37.333Z,-0.60
2019-02-16T23:35:41.182Z,-0.70
2019-02-16T23:38:45.146Z,-0.70
2019-02-16T23:41:48.975Z,-0.70
2019-02-16T23:44:52.877Z,-0.60
2019-02-16T23:47:56.744Z,-0.60
2019-02-16T23:51:00.614Z,-0.60
2019-02-16T23:54:04.505Z,-0.80
2019-02-16T23:57:08.335Z,-0.50
